Pokrovsk, Russia

2:29 PM YAKT on January 31, 2015 (GMT +0900)
Yakutsk | Change Station
CLOSE
Current Station
Airport
Location: Yakutsk,
Elevation: 325 ft
Nearby Weather Stations

Elev 325 ft 62.10 °N, 129.76 °E | Updated 29 minutes ago

Clear
Clear
-27 °F
Feels Like -27 °F
N
2
Wind Variable Wind from NNW

Today
High -- | Low -- °F
--% Chance of Precip.
Yesterday
High -- | Low -- °F
Precip. -- in
8:50 AM 4:24 PM
Waxing Gibbous, 87% visible
Pressure 30.04 in
Visibility -9999.0 miles
Clouds
Dew Point -35 °F
Humidity 69%
Rainfall 0.00 in
Snow Depth Not available.
UV Not available.
Pollen Not available.
Air Quality Not available.
Flu Activity Not available.
METAR UEEE 310500Z 34001MPS CAVOK M33/M37 Q1017 NOSIG RMK QFE754 23490245

More Conditions Fewer Conditions

Pressure 30.04 in
Visibility -9999.0 miles
Clouds
Dew Point -35 °F
Humidity 69%
Rainfall 0.00 in
Snow Depth Not available.
UV Not available.
Pollen Not available.
Air Quality Not available.
Flu Activity Not available.
METAR UEEE 310500Z 34001MPS CAVOK M33/M37 Q1017 NOSIG RMK QFE754 23490245

More Conditions Fewer Conditions

10-Day Weather Forecast

Almanac

Astronomy

Jan. 31, 2015 Rise Set
Actual Time
Civil Twilight
Nautical Twilight
Astronomical Twilight
Moon
Length of Visible Light
Length of Day
Tomorrow will be .
, % of the Moon is Illuminated

Today's Extremes

Country Highs Country Lows

Community

WunderPhotos

Upload Photos

1,792,005 photos uploaded!

WunderBlogs® & News

Nearby

Air Quality

  Air Quality AQ Index Pollutant
Not available.

Snow Depth

Station Depth Elevation

Earthquake Activity

City Distance Mag. Time & Date
Minimum magnitude displayed is 2.5.

Coastal Water Temperatures

Place Temperature

Nearby Weather Stations